sensor_id;sensor_type;location;lat;lon;timestamp;pressure;altitude;pressure_sealevel;temperature;humidity
56402;BME280;42299;35.160;26.100;2023-03-01T00:00:17;101089.00;;;14.53;100.00
56402;BME280;42299;35.160;26.100;2023-03-01T00:01:39;101085.44;;;14.43;100.00
56402;BME280;42299;35.160;26.100;2023-03-01T00:03:00;101086.22;;;14.36;100.00
56402;BME280;42299;35.160;26.100;2023-03-01T00:04:23;101087.09;;;14.33;100.00
56402;BME280;42299;35.160;26.100;2023-03-01T00:05:46;101085.28;;;14.31;100.00
56402;BME280;42299;35.160;26.100;2023-03-01T00:07:07;101083.53;;;14.28;100.00
56402;BME280;42299;35.160;26.100;2023-03-01T00:08:30;101081.72;;;14.26;100.00
56402;BME280;42299;35.160;26.100;2023-03-01T00:09:51;101084.38;;;14.26;100.00
56402;BME280;42299;35.160;26.100;2023-03-01T00:11:16;101082.66;;;14.28;100.00
56402;BME280;42299;35.160;26.100;2023-03-01T00:12:37;101074.69;;;14.32;100.00
56402;BME280;42299;35.160;26.100;2023-03-01T00:14:01;101077.38;;;14.35;100.00
56402;BME280;42299;35.160;26.100;2023-03-01T00:15:24;101080.09;;;14.42;100.00
56402;BME280;42299;35.160;26.100;2023-03-01T00:16:46;101076.56;;;14.46;100.00
56402;BME280;42299;35.160;26.100;2023-03-01T00:18:08;101075.69;;;14.51;100.00
56402;BME280;42299;35.160;26.100;2023-03-01T00:19:30;101075.78;;;14.63;100.00
56402;BME280;42299;35.160;26.100;2023-03-01T00:20:54;101064.28;;;14.78;100.00
56402;BME280;42299;35.160;26.100;2023-03-01T00:22:16;101061.69;;;14.95;100.00
56402;BME280;42299;35.160;26.100;2023-03-01T00:23:38;101062.63;;;15.13;100.00
56402;BME280;42299;35.160;26.100;2023-03-01T00:25:00;101060.00;;;15.29;100.00
56402;BME280;42299;35.160;26.100;2023-03-01T00:26:23;101060.88;;;15.47;98.11
56402;BME280;42299;35.160;26.100;2023-03-01T00:27:46;101053.81;;;15.60;95.96
56402;BME280;42299;35.160;26.100;2023-03-01T00:29:09;101060.91;;;15.73;92.74
56402;BME280;42299;35.160;26.100;2023-03-01T00:30:32;101055.56;;;15.85;91.10
56402;BME280;42299;35.160;26.100;2023-03-01T00:31:55;101052.00;;;15.92;88.83
56402;BME280;42299;35.160;26.100;2023-03-01T00:33:18;101036.00;;;16.03;86.83
56402;BME280;42299;35.160;26.100;2023-03-01T00:34:39;101041.31;;;16.14;84.97
56402;BME280;42299;35.160;26.100;2023-03-01T00:36:03;101042.16;;;16.22;83.14
56402;BME280;42299;35.160;26.100;2023-03-01T00:37:24;101034.16;;;16.29;81.90
56402;BME280;42299;35.160;26.100;2023-03-01T00:38:46;101034.13;;;16.37;80.38
56402;BME280;42299;35.160;26.100;2023-03-01T00:40:09;101033.22;;;16.43;78.41
56402;BME280;42299;35.160;26.100;2023-03-01T00:41:32;101027.84;;;16.50;77.40
56402;BME280;42299;35.160;26.100;2023-03-01T00:42:55;101022.50;;;16.56;76.68
56402;BME280;42299;35.160;26.100;2023-03-01T00:44:17;101026.97;;;16.60;75.12
56402;BME280;42299;35.160;26.100;2023-03-01T00:45:41;101011.84;;;16.64;74.13
56402;BME280;42299;35.160;26.100;2023-03-01T00:47:02;101028.69;;;16.67;73.87
56402;BME280;42299;35.160;26.100;2023-03-01T00:48:26;101018.91;;;16.69;73.51
56402;BME280;42299;35.160;26.100;2023-03-01T00:49:47;101027.81;;;16.70;73.28
56402;BME280;42299;35.160;26.100;2023-03-01T00:51:12;101034.91;;;16.71;73.31
56402;BME280;42299;35.160;26.100;2023-03-01T00:52:34;101019.81;;;16.71;73.08
56402;BME280;42299;35.160;26.100;2023-03-01T00:53:58;101023.34;;;16.73;71.91
56402;BME280;42299;35.160;26.100;2023-03-01T00:55:20;101022.44;;;16.76;71.13
56402;BME280;42299;35.160;26.100;2023-03-01T00:56:42;101019.75;;;16.78;70.60
56402;BME280;42299;35.160;26.100;2023-03-01T00:58:04;101019.75;;;16.78;69.88
56402;BME280;42299;35.160;26.100;2023-03-01T00:59:26;101014.41;;;16.81;68.91
56402;BME280;42299;35.160;26.100;2023-03-01T01:00:49;101014.38;;;16.87;67.64
56402;BME280;42299;35.160;26.100;2023-03-01T01:02:11;101012.56;;;16.92;66.33
56402;BME280;42299;35.160;26.100;2023-03-01T01:03:33;101008.09;;;16.97;64.81
56402;BME280;42299;35.160;26.100;2023-03-01T01:04:54;101009.81;;;17.01;64.15
56402;BME280;42299;35.160;26.100;2023-03-01T01:06:19;101009.81;;;17.04;63.47
56402;BME280;42299;35.160;26.100;2023-03-01T01:07:40;101011.59;;;17.06;62.67
56402;BME280;42299;35.160;26.100;2023-03-01T01:09:04;101011.56;;;17.11;62.17
56402;BME280;42299;35.160;26.100;2023-03-01T01:10:27;101018.63;;;17.13;61.85
56402;BME280;42299;35.160;26.100;2023-03-01T01:11:50;101013.28;;;17.13;61.60
56402;BME280;42299;35.160;26.100;2023-03-01T01:13:13;101016.84;;;17.16;61.74
56402;BME280;42299;35.160;26.100;2023-03-01T01:14:35;101019.50;;;17.14;61.21
56402;BME280;42299;35.160;26.100;2023-03-01T01:16:01;101020.41;;;17.14;60.60
56402;BME280;42299;35.160;26.100;2023-03-01T01:17:23;101017.72;;;17.16;60.22
56402;BME280;42299;35.160;26.100;2023-03-01T01:18:45;101020.41;;;17.18;60.24
56402;BME280;42299;35.160;26.100;2023-03-01T01:20:08;101015.06;;;17.18;60.28
56402;BME280;42299;35.160;26.100;2023-03-01T01:21:31;101019.50;;;17.17;60.16
56402;BME280;42299;35.160;26.100;2023-03-01T01:22:53;101020.41;;;17.18;59.86
56402;BME280;42299;35.160;26.100;2023-03-01T01:24:16;101016.84;;;17.17;59.99
56402;BME280;42299;35.160;26.100;2023-03-01T01:25:38;101015.94;;;17.18;59.65
56402;BME280;42299;35.160;26.100;2023-03-01T01:26:59;101023.06;;;17.19;59.21
56402;BME280;42299;35.160;26.100;2023-03-01T01:28:22;101015.91;;;17.21;58.53
56402;BME280;42299;35.160;26.100;2023-03-01T01:29:43;101016.78;;;17.23;58.23
56402;BME280;42299;35.160;26.100;2023-03-01T01:31:07;101014.13;;;17.26;58.04
56402;BME280;42299;35.160;26.100;2023-03-01T01:32:29;101012.31;;;17.27;57.99
56402;BME280;42299;35.160;26.100;2023-03-01T01:33:52;101018.53;;;17.29;58.07
56402;BME280;42299;35.160;26.100;2023-03-01T01:35:14;101022.97;;;17.28;57.98
56402;BME280;42299;35.160;26.100;2023-03-01T01:36:36;101024.75;;;17.28;57.94
56402;BME280;42299;35.160;26.100;2023-03-01T01:37:58;101019.41;;;17.28;58.19
56402;BME280;42299;35.160;26.100;2023-03-01T01:39:20;101014.13;;;17.26;58.00
56402;BME280;42299;35.160;26.100;2023-03-01T01:40:45;101030.13;;;17.26;58.10
56402;BME280;42299;35.160;26.100;2023-03-01T01:42:12;101022.13;;;17.25;58.08
56402;BME280;42299;35.160;26.100;2023-03-01T01:43:38;101016.78;;;17.25;58.28
56402;BME280;42299;35.160;26.100;2023-03-01T01:45:27;101019.47;;;17.23;58.28
56402;BME280;42299;35.160;26.100;2023-03-01T01:46:52;101019.47;;;17.22;58.51
56402;BME280;42299;35.160;26.100;2023-03-01T01:48:19;101022.16;;;17.19;58.50
56402;BME280;42299;35.160;26.100;2023-03-01T01:49:43;101017.72;;;17.16;58.79
56402;BME280;42299;35.160;26.100;2023-03-01T01:51:18;101023.09;;;17.13;58.88
56402;BME280;42299;35.160;26.100;2023-03-01T01:52:40;101017.78;;;17.07;59.49
56402;BME280;42299;35.160;26.100;2023-03-01T01:54:04;101022.28;;;17.02;59.88
56402;BME280;42299;35.160;26.100;2023-03-01T01:55:28;101021.41;;;16.97;60.16
56402;BME280;42299;35.160;26.100;2023-03-01T01:56:52;101025.88;;;16.96;59.95
56402;BME280;42299;35.160;26.100;2023-03-01T01:58:17;101009.88;;;16.96;59.71
56402;BME280;42299;35.160;26.100;2023-03-01T01:59:44;101019.66;;;16.97;59.35
56402;BME280;42299;35.160;26.100;2023-03-01T02:01:07;101024.97;;;16.99;59.13
56402;BME280;42299;35.160;26.100;2023-03-01T02:02:31;101019.66;;;16.99;59.10
56402;BME280;42299;35.160;26.100;2023-03-01T02:03:54;101019.66;;;16.97;59.02
56402;BME280;42299;35.160;26.100;2023-03-01T02:05:22;101029.44;;;16.94;58.96
56402;BME280;42299;35.160;26.100;2023-03-01T02:06:51;101015.25;;;16.93;58.65
56402;BME280;42299;35.160;26.100;2023-03-01T02:08:18;101025.88;;;16.95;58.27
56402;BME280;42299;35.160;26.100;2023-03-01T02:09:41;101019.66;;;16.96;58.04
56402;BME280;42299;35.160;26.100;2023-03-01T02:11:04;101022.31;;;16.97;57.52
56402;BME280;42299;35.160;26.100;2023-03-01T02:12:26;101018.75;;;16.98;57.34
56402;BME280;42299;35.160;26.100;2023-03-01T02:13:50;101022.28;;;17.03;56.60
56402;BME280;42299;35.160;26.100;2023-03-01T02:15:11;101022.25;;;17.06;56.35
56402;BME280;42299;35.160;26.100;2023-03-01T02:16:33;101020.50;;;17.05;56.39
56402;BME280;42299;35.160;26.100;2023-03-01T02:17:56;101008.03;;;17.06;56.12
56402;BME280;42299;35.160;26.100;2023-03-01T02:19:26;101019.59;;;17.03;56.24
56402;BME280;42299;35.160;26.100;2023-03-01T02:21:03;101019.66;;;16.96;57.97
56402;BME280;42299;35.160;26.100;2023-03-01T02:22:29;101028.56;;;16.87;60.27
56402;BME280;42299;35.160;26.100;2023-03-01T02:23:51;101019.72;;;16.82;62.60
56402;BME280;42299;35.160;26.100;2023-03-01T02:25:25;101017.09;;;16.76;65.45
56402;BME280;42299;35.160;26.100;2023-03-01T02:26:50;101018.91;;;16.69;67.32
56402;BME280;42299;35.160;26.100;2023-03-01T02:28:33;101017.16;;;16.62;70.29
56402;BME280;42299;35.160;26.100;2023-03-01T02:29:57;101012.72;;;16.57;71.45
56402;BME280;42299;35.160;26.100;2023-03-01T02:31:19;101025.16;;;16.58;70.47
56402;BME280;42299;35.160;26.100;2023-03-01T02:33:00;101019.84;;;16.56;70.30
56402;BME280;42299;35.160;26.100;2023-03-01T02:34:25;101017.19;;;16.53;70.53
56402;BME280;42299;35.160;26.100;2023-03-01T02:35:48;101014.56;;;16.47;72.75
56402;BME280;42299;35.160;26.100;2023-03-01T02:37:13;101017.22;;;16.46;74.24
56402;BME280;42299;35.160;26.100;2023-03-01T02:38:41;101011.00;;;16.42;76.36
56402;BME280;42299;35.160;26.100;2023-03-01T02:40:06;101016.38;;;16.39;78.44
56402;BME280;42299;35.160;26.100;2023-03-01T02:41:36;101016.41;;;16.33;80.37
56402;BME280;42299;35.160;26.100;2023-03-01T02:42:58;101020.84;;;16.31;81.74
56402;BME280;42299;35.160;26.100;2023-03-01T02:44:22;101007.50;;;16.29;83.30
56402;BME280;42299;35.160;26.100;2023-03-01T02:45:48;101011.09;;;16.24;84.83
56402;BME280;42299;35.160;26.100;2023-03-01T02:47:10;101009.38;;;16.14;86.16
56402;BME280;42299;35.160;26.100;2023-03-01T02:48:43;101010.25;;;16.13;86.42
56402;BME280;42299;35.160;26.100;2023-03-01T02:50:18;101003.13;;;16.09;87.75
56402;BME280;42299;35.160;26.100;2023-03-01T02:51:52;101000.53;;;16.01;89.17
56402;BME280;42299;35.160;26.100;2023-03-01T02:53:19;101009.41;;;16.00;90.28
56402;BME280;42299;35.160;26.100;2023-03-01T02:54:47;101001.44;;;15.92;91.52
56402;BME280;42299;35.160;26.100;2023-03-01T02:56:11;101006.75;;;15.85;92.40
56402;BME280;42299;35.160;26.100;2023-03-01T02:57:38;100997.03;;;15.79;93.30
56402;BME280;42299;35.160;26.100;2023-03-01T02:59:02;101008.53;;;15.75;93.86
56402;BME280;42299;35.160;26.100;2023-03-01T03:00:28;101007.66;;;15.70;94.56
56402;BME280;42299;35.160;26.100;2023-03-01T03:01:53;101016.56;;;15.66;95.10
56402;BME280;42299;35.160;26.100;2023-03-01T03:03:15;101018.31;;;15.64;95.45
56402;BME280;42299;35.160;26.100;2023-03-01T03:04:38;101015.69;;;15.61;95.48
56402;BME280;42299;35.160;26.100;2023-03-01T03:06:00;101017.44;;;15.58;95.44
56402;BME280;42299;35.160;26.100;2023-03-01T03:07:24;101012.13;;;15.53;95.08
56402;BME280;42299;35.160;26.100;2023-03-01T03:08:45;101014.78;;;15.48;94.29
56402;BME280;42299;35.160;26.100;2023-03-01T03:10:10;101018.31;;;15.49;93.04
56402;BME280;42299;35.160;26.100;2023-03-01T03:11:34;101027.19;;;15.45;91.46
56402;BME280;42299;35.160;26.100;2023-03-01T03:12:59;101014.75;;;15.39;90.18
56402;BME280;42299;35.160;26.100;2023-03-01T03:14:21;101023.63;;;15.43;87.36
56402;BME280;42299;35.160;26.100;2023-03-01T03:15:45;101015.63;;;15.50;83.76
56402;BME280;42299;35.160;26.100;2023-03-01T03:17:07;101019.22;;;15.59;80.98
56402;BME280;42299;35.160;26.100;2023-03-01T03:18:28;101012.13;;;15.67;78.53
56402;BME280;42299;35.160;26.100;2023-03-01T03:19:51;101019.19;;;15.75;75.25
56402;BME280;42299;35.160;26.100;2023-03-01T03:21:12;101020.06;;;15.83;73.24
56402;BME280;42299;35.160;26.100;2023-03-01T03:22:35;101012.97;;;15.90;72.65
56402;BME280;42299;35.160;26.100;2023-03-01T03:23:57;101018.28;;;15.91;72.29
56402;BME280;42299;35.160;26.100;2023-03-01T03:25:20;101022.72;;;15.92;73.39
56402;BME280;42299;35.160;26.100;2023-03-01T03:26:41;101022.75;;;15.88;76.33
56402;BME280;42299;35.160;26.100;2023-03-01T03:28:04;101025.41;;;15.86;76.71
56402;BME280;42299;35.160;26.100;2023-03-01T03:29:30;101026.28;;;15.85;75.45
56402;BME280;42299;35.160;26.100;2023-03-01T03:30:52;101026.25;;;15.88;73.49
56402;BME280;42299;35.160;26.100;2023-03-01T03:32:15;101025.38;;;16.00;69.74
56402;BME280;42299;35.160;26.100;2023-03-01T03:33:37;101024.44;;;16.21;65.49
56402;BME280;42299;35.160;26.100;2023-03-01T03:34:59;101025.25;;;16.35;64.00
56402;BME280;42299;35.160;26.100;2023-03-01T03:36:25;101023.44;;;16.46;61.96
56402;BME280;42299;35.160;26.100;2023-03-01T03:37:47;101019.88;;;16.53;60.34
56402;BME280;42299;35.160;26.100;2023-03-01T03:39:23;101028.72;;;16.61;58.93
56402;BME280;42299;35.160;26.100;2023-03-01T03:40:47;101017.16;;;16.67;57.73
56402;BME280;42299;35.160;26.100;2023-03-01T03:42:09;101026.03;;;16.73;56.87
56402;BME280;42299;35.160;26.100;2023-03-01T03:43:33;101028.66;;;16.78;56.29
56402;BME280;42299;35.160;26.100;2023-03-01T03:44:54;101029.53;;;16.79;56.08
56402;BME280;42299;35.160;26.100;2023-03-01T03:46:18;101031.28;;;16.81;56.32
56402;BME280;42299;35.160;26.100;2023-03-01T03:47:40;101031.31;;;16.80;56.34
56402;BME280;42299;35.160;26.100;2023-03-01T03:49:02;101033.97;;;16.78;56.80
56402;BME280;42299;35.160;26.100;2023-03-01T03:50:25;101025.97;;;16.77;57.20
56402;BME280;42299;35.160;26.100;2023-03-01T03:51:46;101033.09;;;16.74;56.83
56402;BME280;42299;35.160;26.100;2023-03-01T03:53:11;101027.75;;;16.76;56.30
56402;BME280;42299;35.160;26.100;2023-03-01T03:54:35;101022.44;;;16.78;56.35
56402;BME280;42299;35.160;26.100;2023-03-01T03:55:58;101027.75;;;16.74;56.57
56402;BME280;42299;35.160;26.100;2023-03-01T03:57:19;101034.03;;;16.73;56.65
56402;BME280;42299;35.160;26.100;2023-03-01T03:58:41;101041.13;;;16.71;57.04
56402;BME280;42299;35.160;26.100;2023-03-01T04:00:04;101040.25;;;16.69;57.15
56402;BME280;42299;35.160;26.100;2023-03-01T04:01:34;101042.91;;;16.68;56.93
56402;BME280;42299;35.160;26.100;2023-03-01T04:02:56;101046.50;;;16.67;57.05
56402;BME280;42299;35.160;26.100;2023-03-01T04:04:18;101042.94;;;16.65;57.39
56402;BME280;42299;35.160;26.100;2023-03-01T04:05:40;101046.50;;;16.64;57.21
56402;BME280;42299;35.160;26.100;2023-03-01T04:07:02;101054.50;;;16.61;57.20
56402;BME280;42299;35.160;26.100;2023-03-01T04:08:24;101056.25;;;16.57;57.64
56402;BME280;42299;35.160;26.100;2023-03-01T04:09:46;101055.41;;;16.54;57.92
56402;BME280;42299;35.160;26.100;2023-03-01T04:11:08;101052.72;;;16.49;59.28
56402;BME280;42299;35.160;26.100;2023-03-01T04:12:49;101064.34;;;16.39;60.70
56402;BME280;42299;35.160;26.100;2023-03-01T04:14:10;101059.03;;;16.33;62.17
56402;BME280;42299;35.160;26.100;2023-03-01T04:15:33;101060.81;;;16.26;63.14
56402;BME280;42299;35.160;26.100;2023-03-01T04:16:56;101060.84;;;16.20;64.05
56402;BME280;42299;35.160;26.100;2023-03-01T04:18:20;101064.38;;;16.15;64.70
56402;BME280;42299;35.160;26.100;2023-03-01T04:19:41;101073.31;;;16.08;65.57
56402;BME280;42299;35.160;26.100;2023-03-01T04:21:04;101060.88;;;16.01;66.25
56402;BME280;42299;35.160;26.100;2023-03-01T04:22:26;101076.84;;;15.98;66.61
56402;BME280;42299;35.160;26.100;2023-03-01T04:23:50;101073.28;;;15.95;66.26
56402;BME280;42299;35.160;26.100;2023-03-01T04:25:13;101068.88;;;15.93;66.35
56402;BME280;42299;35.160;26.100;2023-03-01T04:26:35;101072.44;;;15.80;66.65
56402;BME280;42299;35.160;26.100;2023-03-01T04:27:57;101079.53;;;15.79;66.97
56402;BME280;42299;35.160;26.100;2023-03-01T04:29:18;101083.09;;;15.80;66.66
56402;BME280;42299;35.160;26.100;2023-03-01T04:30:43;101078.66;;;15.80;66.49
56402;BME280;42299;35.160;26.100;2023-03-01T04:32:07;101082.19;;;15.82;66.18
56402;BME280;42299;35.160;26.100;2023-03-01T04:33:29;101091.06;;;15.84;66.08
56402;BME280;42299;35.160;26.100;2023-03-01T04:34:50;101091.94;;;15.83;66.32
56402;BME280;42299;35.160;26.100;2023-03-01T04:36:14;101096.38;;;15.83;66.42
56402;BME280;42299;35.160;26.100;2023-03-01T04:37:36;101095.50;;;15.82;66.56
56402;BME280;42299;35.160;26.100;2023-03-01T04:38:59;101085.75;;;15.80;66.79
56402;BME280;42299;35.160;26.100;2023-03-01T04:40:33;101091.97;;;15.79;66.85
56402;BME280;42299;35.160;26.100;2023-03-01T04:41:55;101091.06;;;15.78;66.89
56402;BME280;42299;35.160;26.100;2023-03-01T04:43:17;101091.06;;;15.75;67.22
56402;BME280;42299;35.160;26.100;2023-03-01T04:44:39;101094.63;;;15.73;67.69
56402;BME280;42299;35.160;26.100;2023-03-01T04:46:02;101089.28;;;15.71;67.81
56402;BME280;42299;35.160;26.100;2023-03-01T04:47:26;101086.66;;;15.68;67.51
56402;BME280;42299;35.160;26.100;2023-03-01T04:48:48;101091.09;;;15.66;67.94
56402;BME280;42299;35.160;26.100;2023-03-01T04:50:12;101091.97;;;15.64;68.96
56402;BME280;42299;35.160;26.100;2023-03-01T04:51:34;101091.06;;;15.59;69.22
56402;BME280;42299;35.160;26.100;2023-03-01T04:52:56;101091.97;;;15.58;69.46
56402;BME280;42299;35.160;26.100;2023-03-01T04:54:19;101082.19;;;15.57;69.83
56402;BME280;42299;35.160;26.100;2023-03-01T04:55:41;101083.97;;;15.56;70.30
56402;BME280;42299;35.160;26.100;2023-03-01T04:57:03;101086.66;;;15.54;71.07
56402;BME280;42299;35.160;26.100;2023-03-01T04:58:26;101087.53;;;15.53;72.36
56402;BME280;42299;35.160;26.100;2023-03-01T04:59:49;101092.81;;;15.52;73.30
56402;BME280;42299;35.160;26.100;2023-03-01T05:01:11;101091.03;;;15.49;73.97
56402;BME280;42299;35.160;26.100;2023-03-01T05:02:38;101091.03;;;15.42;75.75
56402;BME280;42299;35.160;26.100;2023-03-01T05:04:00;101090.13;;;15.31;77.71
56402;BME280;42299;35.160;26.100;2023-03-01T05:05:27;101090.09;;;15.23;79.19
56402;BME280;42299;35.160;26.100;2023-03-01T05:06:49;101091.00;;;15.21;80.00
56402;BME280;42299;35.160;26.100;2023-03-01T05:08:13;101086.59;;;15.23;79.99
56402;BME280;42299;35.160;26.100;2023-03-01T05:09:38;101096.34;;;15.27;79.94
56402;BME280;42299;35.160;26.100;2023-03-01T05:11:00;101093.66;;;15.31;80.35
56402;BME280;42299;35.160;26.100;2023-03-01T05:12:22;101091.91;;;15.35;79.00
56402;BME280;42299;35.160;26.100;2023-03-01T05:13:44;101094.59;;;15.41;78.18
56402;BME280;42299;35.160;26.100;2023-03-01T05:15:07;101100.81;;;15.47;77.00
56402;BME280;42299;35.160;26.100;2023-03-01T05:16:29;101099.06;;;15.54;75.15
56402;BME280;42299;35.160;26.100;2023-03-01T05:17:53;101100.84;;;15.66;72.62
56402;BME280;42299;35.160;26.100;2023-03-01T05:19:15;101110.59;;;15.74;71.57
56402;BME280;42299;35.160;26.100;2023-03-01T05:20:37;101108.81;;;15.82;71.38
56402;BME280;42299;35.160;26.100;2023-03-01T05:21:59;101109.72;;;15.87;70.64
56402;BME280;42299;35.160;26.100;2023-03-01T05:23:25;101117.69;;;15.97;68.92
56402;BME280;42299;35.160;26.100;2023-03-01T05:24:47;101115.91;;;16.06;67.62
56402;BME280;42299;35.160;26.100;2023-03-01T05:26:10;101116.78;;;16.13;67.83
56402;BME280;42299;35.160;26.100;2023-03-01T05:27:33;101121.19;;;16.21;69.15
56402;BME280;42299;35.160;26.100;2023-03-01T05:28:56;101122.06;;;16.28;70.65
56402;BME280;42299;35.160;26.100;2023-03-01T05:30:19;101115.88;;;16.30;70.79
56402;BME280;42299;35.160;26.100;2023-03-01T05:31:42;101122.09;;;16.34;70.29
56402;BME280;42299;35.160;26.100;2023-03-01T05:33:06;101125.59;;;16.42;69.14
56402;BME280;42299;35.160;26.100;2023-03-01T05:34:35;101126.47;;;16.53;68.46
56402;BME280;42299;35.160;26.100;2023-03-01T05:35:59;101123.78;;;16.61;68.82
56402;BME280;42299;35.160;26.100;2023-03-01T05:37:21;101131.78;;;16.64;69.02
56402;BME280;42299;35.160;26.100;2023-03-01T05:38:43;101132.69;;;16.64;68.66
56402;BME280;42299;35.160;26.100;2023-03-01T05:40:06;101129.13;;;16.65;68.19
56402;BME280;42299;35.160;26.100;2023-03-01T05:41:36;101126.47;;;16.67;68.52
56402;BME280;42299;35.160;26.100;2023-03-01T05:42:58;101131.78;;;16.70;68.89
56402;BME280;42299;35.160;26.100;2023-03-01T05:44:20;101137.06;;;16.74;69.32
56402;BME280;42299;35.160;26.100;2023-03-01T05:45:42;101137.97;;;16.75;70.22
56402;BME280;42299;35.160;26.100;2023-03-01T05:47:04;101138.84;;;16.77;70.85
56402;BME280;42299;35.160;26.100;2023-03-01T05:48:27;101140.66;;;16.80;71.77
56402;BME280;42299;35.160;26.100;2023-03-01T05:49:49;101130.88;;;16.80;72.52
56402;BME280;42299;35.160;26.100;2023-03-01T05:51:11;101135.28;;;16.83;73.57
56402;BME280;42299;35.160;26.100;2023-03-01T05:52:34;101143.28;;;16.84;75.11
56402;BME280;42299;35.160;26.100;2023-03-01T05:53:55;101145.03;;;16.88;77.03
56402;BME280;42299;35.160;26.100;2023-03-01T05:55:19;101150.34;;;16.96;78.79
56402;BME280;42299;35.160;26.100;2023-03-01T05:56:40;101150.31;;;17.02;80.28
56402;BME280;42299;35.160;26.100;2023-03-01T05:58:04;101151.16;;;17.10;81.85
56402;BME280;42299;35.160;26.100;2023-03-01T05:59:27;101145.78;;;17.16;82.48
56402;BME280;42299;35.160;26.100;2023-03-01T06:00:49;101149.31;;;17.21;83.09
56402;BME280;42299;35.160;26.100;2023-03-01T06:02:11;101153.72;;;17.28;83.91
56402;BME280;42299;35.160;26.100;2023-03-01T06:03:34;101154.56;;;17.36;84.29
56402;BME280;42299;35.160;26.100;2023-03-01T06:04:56;101159.84;;;17.47;84.19
56402;BME280;42299;35.160;26.100;2023-03-01T06:06:18;101163.31;;;17.60;83.85
56402;BME280;42299;35.160;26.100;2023-03-01T06:07:41;101165.03;;;17.76;83.67
56402;BME280;42299;35.160;26.100;2023-03-01T06:09:03;101168.50;;;17.90;82.90
56402;BME280;42299;35.160;26.100;2023-03-01T06:10:28;101171.06;;;18.02;82.35
56402;BME280;42299;35.160;26.100;2023-03-01T06:11:50;101175.41;;;18.12;82.36
56402;BME280;42299;35.160;26.100;2023-03-01T06:13:12;101173.59;;;18.17;82.47
56402;BME280;42299;35.160;26.100;2023-03-01T06:14:35;101174.44;;;18.21;81.91
56402;BME280;42299;35.160;26.100;2023-03-01T06:15:56;101177.06;;;18.25;82.47
56402;BME280;42299;35.160;26.100;2023-03-01T06:17:18;101179.72;;;18.30;81.44
56402;BME280;42299;35.160;26.100;2023-03-01T06:18:41;101178.78;;;18.32;80.83
56402;BME280;42299;35.160;26.100;2023-03-01T06:20:04;101188.56;;;18.35;80.65
56402;BME280;42299;35.160;26.100;2023-03-01T06:21:26;101192.09;;;18.40;81.57
56402;BME280;42299;35.160;26.100;2023-03-01T06:22:49;101183.19;;;18.38;81.71
56402;BME280;42299;35.160;26.100;2023-03-01T06:24:10;101191.19;;;18.40;82.28
56402;BME280;42299;35.160;26.100;2023-03-01T06:25:32;101194.69;;;18.45;82.61
56402;BME280;42299;35.160;26.100;2023-03-01T06:26:53;101199.97;;;18.54;80.91
56402;BME280;42299;35.160;26.100;2023-03-01T06:28:16;101197.25;;;18.61;79.69
56402;BME280;42299;35.160;26.100;2023-03-01T06:29:38;101202.47;;;18.72;79.04
56402;BME280;42299;35.160;26.100;2023-03-01T06:31:01;101204.19;;;18.78;78.44
56402;BME280;42299;35.160;26.100;2023-03-01T06:32:24;101209.53;;;18.82;78.73
56402;BME280;42299;35.160;26.100;2023-03-01T06:33:47;101213.03;;;18.86;80.04
56402;BME280;42299;35.160;26.100;2023-03-01T06:35:11;101213.88;;;18.91;80.93
56402;BME280;42299;35.160;26.100;2023-03-01T06:36:34;101212.91;;;18.98;80.16
56402;BME280;42299;35.160;26.100;2023-03-01T06:37:57;101215.47;;;19.08;81.68
56402;BME280;42299;35.160;26.100;2023-03-01T06:39:20;101218.88;;;19.20;83.38
56402;BME280;42299;35.160;26.100;2023-03-01T06:40:41;101223.19;;;19.30;85.85
56402;BME280;42299;35.160;26.100;2023-03-01T06:42:03;101222.22;;;19.38;86.55
56402;BME280;42299;35.160;26.100;2023-03-01T06:43:26;101226.59;;;19.45;86.93
56402;BME280;42299;35.160;26.100;2023-03-01T06:44:48;101224.75;;;19.52;85.39
56402;BME280;42299;35.160;26.100;2023-03-01T06:46:10;101232.66;;;19.61;85.44
56402;BME280;42299;35.160;26.100;2023-03-01T06:47:33;101230.69;;;19.72;85.72
56402;BME280;42299;35.160;26.100;2023-03-01T06:48:55;101234.09;;;19.85;86.41
56402;BME280;42299;35.160;26.100;2023-03-01T06:50:18;101233.91;;;19.97;85.49
56402;BME280;42299;35.160;26.100;2023-03-01T06:51:41;101242.59;;;20.13;83.50
56402;BME280;42299;35.160;26.100;2023-03-01T06:53:03;101236.03;;;20.30;80.74
56402;BME280;42299;35.160;26.100;2023-03-01T06:54:26;101237.50;;;20.51;79.73
56402;BME280;42299;35.160;26.100;2023-03-01T06:55:54;101235.34;;;20.72;77.59
56402;BME280;42299;35.160;26.100;2023-03-01T06:57:16;101239.50;;;20.88;75.63
56402;BME280;42299;35.160;26.100;2023-03-01T06:58:37;101236.50;;;21.04;74.40
56402;BME280;42299;35.160;26.100;2023-03-01T07:00:00;101234.41;;;21.20;73.50
56402;BME280;42299;35.160;26.100;2023-03-01T07:01:21;101226.03;;;21.35;72.51
56402;BME280;42299;35.160;26.100;2023-03-01T07:02:43;101228.38;;;21.52;70.53
56402;BME280;42299;35.160;26.100;2023-03-01T07:04:07;101230.75;;;21.66;70.07
56402;BME280;42299;35.160;26.100;2023-03-01T07:05:30;101224.31;;;21.73;70.04
56402;BME280;42299;35.160;26.100;2023-03-01T07:06:52;101230.47;;;21.78;69.35
56402;BME280;42299;35.160;26.100;2023-03-01T07:08:15;101221.25;;;21.88;69.72
56402;BME280;42299;35.160;26.100;2023-03-01T07:09:38;101219.19;;;22.02;70.23
56402;BME280;42299;35.160;26.100;2023-03-01T07:10:59;101218.88;;;22.14;70.15